Terminal Aerodrome Forecast
Issued by NWS

Home | Current Version | Previous Version | Text Only | Print | Product List | Glossary On
Versions: 1 2 3 4 5 6 7 8 9 10 11 12 13 14 15 16 17 18 19 20
000
FTUS41 KCAR 291728
TAFPQI
TAF
KPQI 291728Z 2918/3018 32015G25KT P6SM SCT025 BKN040
      TEMPO 2918/2920 5SM -RA BR BKN025
     FM292100 33012G20KT P6SM SCT100
     FM292300 32006KT P6SM FEW250
     FM301000 00000KT P6SM FEW250=

USA.gov is the U.S. government's official web portal to all federal, state and local government web resources and services.